Airfield :
LOGIN :

Register | Disclaimer

   EN    FR    IT 

 










Legend :    VFR   Marginal VFR   IFR   Intensive IFR   Very Intensive IFR
Visi :
Ceiling :
>= 8 km
>= 3000ft
5 to 8 km
1000 to 3000 ft
1500m to 5 km
500 to 1000 ft
800 to 1500m
200 to 500 ft
< 800m
< 200 ft
Symbols :   Thunderstorms  Fog  Heavy snow  Heavy precipitations  Wind > 20 kt
SIGMETs :     Misc.  Thunderstorms  Icing  Turbulence  Mountain Waves  Volcanic Ashes






- Airport Elevation : 17 ft
- IATA code : GRQ


EHGG - Groningen Eelde

CURRENT METAR :
  • 230225Z AUTO 25002KT 0350 R23/0550U FZFG VV000 M00/M01 Q1035

EXPIRED METARs :
  • 230155Z AUTO 25001KT 0200 R23/0350N FZFG VV000 M00/M00 Q1035
  • 230125Z AUTO 25001KT 0500 R23/0500D FZFG VV000 M00/M00 Q1035
  • 230055Z AUTO 25001KT 0200 R23/0300N FZFG VV000 M00/M00 Q1036
  • 230025Z AUTO 25002KT 0200 R23/0275N FZFG VV000 M00/M00 Q1036 REFZRA
  • 222355Z AUTO 25003KT 0300 R23/0375N FG VV000 00/00 Q1036

TAF TAF EHGG
Valid from the 23 at 00:00 until the 24 at 06:00 UTC


222311Z 2300/2406 VRB03KT 0300 FG FZFG VV000
BECMG 2310/2313 21006KT 2000 BR BKN002
BECMG 2313/2316 4000 BKN004
PROB30 2314/2319 6000 NSW BKN008
PROB30 2319/2406 0600 FG BKN001



MET'MAP, your aeronautical weather chart ! - Copyright ORBIFLY December 2007 - Disclaimer

ORBIFLY MET'MAP TEAM :

Programming & Development : Alexandra Zaïnal
Concept & original design : Baudouin d'Aumeries
Assistance for programming : Marc-Olivier Méhu
Technical & hardware support : Manuel Goepfert

Contact : metmap@orbifly.com




SOURCES & CREDITS :

   NOAA